Aviation Digital Data Service (ADDS)

Output produced by METARs form (1943 UTC 25 February 2018)
found at http://aviationweather.gov/adds/metars/
 
METAR text: KO22 251915Z AUTO 16005KT 10SM CLR 12/M03 A3030 RMK AO1
Conditions at: KO22 (COLUMBIA , CA, US) observed 1915 UTC 25 February 2018
Temperature: 12.0°C (54°F)
Dewpoint: -3.0°C (27°F) [RH = 35%]
Pressure (altimeter): 30.30 inches Hg (1026.2 mb)
Winds: from the SSE (160 degrees) at 6 MPH (5 knots; 2.6 m/s)
Visibility: 10 or more miles (16+ km)
Ceiling: at least 12,000 feet AGL
Clouds: sky clear below 12,000 feet AGL
Weather: automated observation with no human augmentation;
there may or may not be significant weather present at this time